Terminal Aerodrome Forecast
Issued by NWS

Home | Current Version | Previous Version | Graphics & Text | Print | Product List | Glossary On
Versions: 1 2 3 4 5 6 7 8 9 10 11 12 13 14 15 16 17
000
FTUS43 KTOP 181400 AAA
TAFMHK
TAF AMD
KMHK 181425Z 1814/1912 00000KT 2SM BR SCT200
     FM181500 17010KT P6SM FEW200
     FM181800 18014G22KT P6SM SKC
     FM190100 17006KT P6SM SKC=

USA.gov is the U.S. government's official web portal to all federal, state and local government web resources and services.